createdAt,value
2022-12-31T00:00:33.830Z,-0.28
2022-12-31T00:03:21.634Z,-0.31
2022-12-31T00:05:49.554Z,-0.34
2022-12-31T00:08:17.359Z,-0.38
2022-12-31T00:10:45.305Z,-0.41
2022-12-31T00:13:13.332Z,-0.43
2022-12-31T00:15:41.960Z,-0.47
2022-12-31T00:18:10.139Z,-0.50
2022-12-31T00:20:41.933Z,-0.54
2022-12-31T00:23:11.168Z,-0.56
2022-12-31T00:25:39.025Z,-0.57
2022-12-31T00:28:06.843Z,-0.57
2022-12-31T00:30:35.119Z,-0.56
2022-12-31T00:33:03.072Z,-0.55
2022-12-31T00:35:31.392Z,-0.52
2022-12-31T00:37:59.184Z,-0.48
2022-12-31T00:40:28.641Z,-0.45
2022-12-31T00:42:56.454Z,-0.43
2022-12-31T00:45:24.235Z,-0.40
2022-12-31T00:47:52.015Z,-0.38
2022-12-31T00:50:19.857Z,-0.35
2022-12-31T00:52:47.648Z,-0.32
2022-12-31T00:55:15.521Z,-0.29
2022-12-31T00:57:43.381Z,-0.26
2022-12-31T01:00:11.544Z,-0.26
2022-12-31T01:02:39.566Z,-0.27
2022-12-31T01:05:08.519Z,-0.30
2022-12-31T01:07:37.489Z,-0.34
2022-12-31T01:10:05.786Z,-0.38
2022-12-31T01:12:33.560Z,-0.42
2022-12-31T01:15:01.334Z,-0.46
2022-12-31T01:17:29.492Z,-0.50
2022-12-31T01:19:57.473Z,-0.54
2022-12-31T01:22:25.292Z,-0.58
2022-12-31T01:24:53.162Z,-0.62
2022-12-31T01:27:21.783Z,-0.69
2022-12-31T01:29:49.647Z,-0.74
2022-12-31T01:32:18.622Z,-0.79
2022-12-31T01:34:47.425Z,-0.84
2022-12-31T01:37:15.401Z,-0.89
2022-12-31T01:39:43.263Z,-0.93
2022-12-31T01:42:12.108Z,-0.99
2022-12-31T01:44:39.841Z,-1.04
2022-12-31T01:47:13.340Z,-1.09
2022-12-31T01:49:44.575Z,-1.13
2022-12-31T01:52:18.372Z,-1.17
2022-12-31T01:54:52.245Z,-1.19
2022-12-31T01:57:21.132Z,-1.23
2022-12-31T01:59:49.252Z,-1.26
2022-12-31T02:02:17.328Z,-1.29
2022-12-31T02:04:45.269Z,-1.33
2022-12-31T02:07:13.060Z,-1.35
2022-12-31T02:09:42.258Z,-1.35
2022-12-31T02:12:10.388Z,-1.36
2022-12-31T02:14:42.052Z,-1.35
2022-12-31T02:17:12.928Z,-1.33
2022-12-31T02:19:59.829Z,-1.31
2022-12-31T02:22:37.806Z,-1.30
2022-12-31T02:25:08.825Z,-1.31
2022-12-31T02:27:45.219Z,-1.32
2022-12-31T02:30:15.309Z,-1.35
2022-12-31T02:32:55.348Z,-1.35
2022-12-31T02:35:37.512Z,-1.36
2022-12-31T02:38:08.867Z,-1.39
2022-12-31T02:40:37.240Z,-1.41
2022-12-31T02:43:05.279Z,-1.44
2022-12-31T02:45:39.121Z,-1.45
2022-12-31T02:48:06.992Z,-1.47
2022-12-31T02:50:55.551Z,-1.47
2022-12-31T02:53:35.599Z,-1.48
2022-12-31T02:56:11.240Z,-1.44
2022-12-31T02:59:03.813Z,-1.40
2022-12-31T03:01:53.956Z,-1.35
2022-12-31T03:04:36.165Z,-1.29
2022-12-31T03:07:08.764Z,-1.25
2022-12-31T03:09:37.128Z,-1.22
2022-12-31T03:12:25.321Z,-1.18
2022-12-31T03:14:53.479Z,-1.13
2022-12-31T03:17:21.321Z,-1.10
2022-12-31T03:20:07.713Z,-1.06
2022-12-31T03:22:37.472Z,-1.02
2022-12-31T03:25:27.386Z,-0.97
2022-12-31T03:27:55.290Z,-0.91
2022-12-31T03:30:23.950Z,-0.86
2022-12-31T03:32:51.939Z,-0.81
2022-12-31T03:35:20.686Z,-0.75
2022-12-31T03:37:49.853Z,-0.70
2022-12-31T03:40:19.433Z,-0.64
2022-12-31T03:42:47.149Z,-0.60
2022-12-31T03:45:15.501Z,-0.56
2022-12-31T03:47:43.264Z,-0.51
2022-12-31T03:50:11.888Z,-0.47
2022-12-31T03:52:40.063Z,-0.44
2022-12-31T03:55:08.110Z,-0.41
2022-12-31T03:57:36.394Z,-0.38
2022-12-31T04:00:05.650Z,-0.35
2022-12-31T04:02:33.553Z,-0.32
2022-12-31T04:05:01.358Z,-0.29
2022-12-31T04:07:29.252Z,-0.27
2022-12-31T04:09:57.846Z,-0.25
2022-12-31T04:12:25.904Z,-0.23
2022-12-31T04:14:53.701Z,-0.20
2022-12-31T04:17:21.511Z,-0.17
2022-12-31T04:19:49.569Z,-0.13
2022-12-31T04:22:17.655Z,-0.09
2022-12-31T04:24:45.669Z,-0.06
2022-12-31T04:27:13.796Z,0.00
2022-12-31T04:29:41.603Z,0.04
2022-12-31T04:32:10.621Z,0.07
2022-12-31T04:34:38.554Z,0.09
2022-12-31T04:37:06.625Z,0.12
2022-12-31T04:39:35.040Z,0.14
2022-12-31T04:42:02.971Z,0.17
2022-12-31T04:44:31.758Z,0.19
2022-12-31T04:46:59.630Z,0.22
2022-12-31T04:49:27.596Z,0.24
2022-12-31T04:51:55.414Z,0.27
2022-12-31T04:54:23.285Z,0.29
2022-12-31T04:56:51.017Z,0.30
2022-12-31T04:59:18.798Z,0.32
2022-12-31T05:01:46.932Z,0.34
2022-12-31T05:04:14.780Z,0.37
2022-12-31T05:06:42.510Z,0.38
2022-12-31T05:09:10.637Z,0.40
2022-12-31T05:11:39.354Z,0.40
2022-12-31T05:14:07.203Z,0.40
2022-12-31T05:16:35.191Z,0.39
2022-12-31T05:19:05.181Z,0.40
2022-12-31T05:21:33.146Z,0.41
2022-12-31T05:24:01.221Z,0.40
2022-12-31T05:26:29.190Z,0.40
2022-12-31T05:28:57.261Z,0.41
2022-12-31T05:31:27.452Z,0.41
2022-12-31T05:33:55.251Z,0.42
2022-12-31T05:36:23.006Z,0.41
2022-12-31T05:38:50.980Z,0.42
2022-12-31T05:41:18.734Z,0.42
2022-12-31T05:43:46.547Z,0.43
2022-12-31T05:46:16.400Z,0.43
2022-12-31T05:48:44.395Z,0.43
2022-12-31T05:51:12.261Z,0.44
2022-12-31T05:53:40.031Z,0.45
2022-12-31T05:56:08.101Z,0.46
2022-12-31T05:58:35.968Z,0.46
2022-12-31T06:01:03.903Z,0.46
2022-12-31T06:03:32.434Z,0.47
2022-12-31T06:06:01.444Z,0.48
2022-12-31T06:08:29.456Z,0.49
2022-12-31T06:10:57.559Z,0.51
2022-12-31T06:13:25.339Z,0.52
2022-12-31T06:15:53.262Z,0.53
2022-12-31T06:18:21.226Z,0.52
2022-12-31T06:20:49.122Z,0.51
2022-12-31T06:23:16.991Z,0.49
2022-12-31T06:25:44.788Z,0.46
2022-12-31T06:28:19.688Z,0.42
2022-12-31T06:30:48.788Z,0.39
2022-12-31T06:33:16.671Z,0.38
2022-12-31T06:35:44.519Z,0.38
2022-12-31T06:38:12.387Z,0.37
2022-12-31T06:40:40.249Z,0.37
2022-12-31T06:43:08.235Z,0.39
2022-12-31T06:45:36.147Z,0.41
2022-12-31T06:48:04.488Z,0.44
2022-12-31T06:50:32.747Z,0.49
2022-12-31T06:53:00.574Z,0.59
2022-12-31T06:55:29.112Z,0.68
2022-12-31T06:57:57.088Z,0.77
2022-12-31T07:00:25.034Z,0.83
2022-12-31T07:02:55.687Z,0.93
2022-12-31T07:05:42.208Z,1.01
2022-12-31T07:08:13.007Z,1.07
2022-12-31T07:11:00.149Z,1.10
2022-12-31T07:13:34.135Z,1.12
2022-12-31T07:16:17.373Z,1.13
2022-12-31T07:18:48.006Z,1.15
2022-12-31T07:21:17.088Z,1.17
2022-12-31T07:23:45.135Z,1.19
2022-12-31T07:26:25.216Z,1.21
2022-12-31T07:29:04.734Z,1.23
2022-12-31T07:31:51.576Z,1.25
2022-12-31T07:34:19.537Z,1.27
2022-12-31T07:36:59.422Z,1.31
2022-12-31T07:39:31.933Z,1.36
2022-12-31T07:42:31.951Z,1.41
2022-12-31T07:45:08.597Z,1.48
2022-12-31T07:47:36.832Z,1.56
2022-12-31T07:50:05.007Z,1.61
2022-12-31T07:52:32.932Z,1.66
2022-12-31T07:55:00.802Z,1.72
2022-12-31T07:57:34.245Z,1.81
2022-12-31T08:00:09.579Z,1.89
2022-12-31T08:02:42.998Z,1.95
2022-12-31T08:05:14.131Z,2.01
2022-12-31T08:08:00.583Z,2.07
2022-12-31T08:10:28.772Z,2.11
2022-12-31T08:13:00.767Z,2.13
2022-12-31T08:15:30.725Z,2.18
2022-12-31T08:17:58.873Z,2.23
2022-12-31T08:20:27.233Z,2.32
2022-12-31T08:23:05.404Z,2.41
2022-12-31T08:25:48.360Z,2.53
2022-12-31T08:28:31.078Z,2.83
2022-12-31T08:30:59.163Z,4.21
2022-12-31T08:33:44.802Z,5.72
2022-12-31T08:36:31.397Z,7.40
2022-12-31T08:39:05.347Z,8.27
2022-12-31T08:41:42.857Z,8.35
2022-12-31T08:44:11.093Z,9.17
2022-12-31T08:46:51.374Z,10.57
2022-12-31T08:49:19.455Z,12.03
2022-12-31T08:51:47.928Z,13.36
2022-12-31T08:54:16.233Z,14.34
2022-12-31T08:56:50.440Z,15.27
2022-12-31T08:59:34.253Z,16.07
2022-12-31T09:02:08.632Z,16.68
2022-12-31T09:04:39.423Z,17.16
2022-12-31T09:07:09.554Z,17.64
2022-12-31T09:09:50.819Z,18.14
2022-12-31T09:12:39.279Z,18.66
2022-12-31T09:15:18.306Z,19.09
2022-12-31T09:17:48.156Z,19.52
2022-12-31T09:20:19.665Z,19.96
2022-12-31T09:22:47.588Z,20.16
2022-12-31T09:25:16.906Z,19.77
2022-12-31T09:27:44.698Z,19.25
2022-12-31T09:30:13.873Z,19.42
2022-12-31T09:33:01.329Z,20.02
2022-12-31T09:35:29.591Z,20.68
2022-12-31T09:38:05.305Z,20.73
2022-12-31T09:40:46.451Z,20.07
2022-12-31T09:43:14.294Z,18.97
2022-12-31T09:46:00.682Z,17.87
2022-12-31T09:48:31.566Z,16.71
2022-12-31T09:51:02.864Z,15.66
2022-12-31T09:53:42.952Z,14.76
2022-12-31T09:56:23.096Z,13.98
2022-12-31T09:59:00.485Z,13.36
2022-12-31T10:01:37.777Z,12.88
2022-12-31T10:04:25.092Z,12.45
2022-12-31T10:07:10.676Z,11.98
2022-12-31T10:09:56.880Z,11.47
2022-12-31T10:12:40.100Z,11.03
2022-12-31T10:15:27.439Z,10.64
2022-12-31T10:17:59.465Z,10.28
2022-12-31T10:20:27.261Z,10.03
2022-12-31T10:23:13.656Z,9.80
2022-12-31T10:25:54.731Z,9.53
2022-12-31T10:28:25.471Z,9.25
2022-12-31T10:31:12.329Z,9.02
2022-12-31T10:33:43.399Z,8.79
2022-12-31T10:36:31.074Z,8.61
2022-12-31T10:38:58.930Z,8.44
2022-12-31T10:41:38.871Z,8.28
2022-12-31T10:44:25.516Z,8.08
2022-12-31T10:47:12.204Z,7.94
2022-12-31T10:49:46.715Z,7.82
2022-12-31T10:52:38.196Z,7.78
2022-12-31T10:55:28.317Z,7.81
2022-12-31T10:58:15.165Z,7.81
2022-12-31T11:00:58.576Z,7.78
2022-12-31T11:03:49.091Z,7.72
2022-12-31T11:06:39.916Z,7.64
2022-12-31T11:09:07.733Z,7.59
2022-12-31T11:11:35.498Z,7.56
2022-12-31T11:14:16.366Z,7.55
2022-12-31T11:16:53.553Z,7.60
2022-12-31T11:19:30.738Z,7.69
2022-12-31T11:22:04.476Z,7.77
2022-12-31T11:24:32.473Z,7.85
2022-12-31T11:27:03.270Z,7.95
2022-12-31T11:29:31.014Z,8.07
2022-12-31T11:32:06.672Z,8.18
2022-12-31T11:34:37.523Z,8.26
2022-12-31T11:37:17.792Z,8.34
2022-12-31T11:39:54.645Z,8.42
2022-12-31T11:42:25.912Z,8.50
2022-12-31T11:44:58.823Z,8.64
2022-12-31T11:47:49.704Z,8.78
2022-12-31T11:50:35.781Z,8.93
2022-12-31T11:53:12.755Z,9.14
2022-12-31T11:55:59.285Z,9.41
2022-12-31T11:58:28.718Z,9.70
2022-12-31T12:00:59.558Z,10.00
2022-12-31T12:03:27.980Z,10.43
2022-12-31T12:05:57.290Z,11.00
2022-12-31T12:08:26.866Z,11.48
2022-12-31T12:11:00.777Z,11.97
2022-12-31T12:13:28.533Z,12.46
2022-12-31T12:16:00.770Z,13.00
2022-12-31T12:18:36.250Z,13.41
2022-12-31T12:21:10.353Z,13.79
2022-12-31T12:23:39.480Z,13.99
2022-12-31T12:26:07.960Z,14.16
2022-12-31T12:28:44.534Z,14.27
2022-12-31T12:31:24.277Z,14.20
2022-12-31T12:33:52.488Z,14.14
2022-12-31T12:36:20.973Z,14.05
2022-12-31T12:38:49.420Z,13.83
2022-12-31T12:41:23.509Z,13.52
2022-12-31T12:44:01.956Z,13.19
2022-12-31T12:46:41.559Z,12.96
2022-12-31T12:49:22.767Z,12.81
2022-12-31T12:51:56.783Z,12.67
2022-12-31T12:54:43.690Z,12.50
2022-12-31T12:57:20.376Z,12.38
2022-12-31T13:00:04.304Z,12.22
2022-12-31T13:02:54.331Z,12.18
2022-12-31T13:05:34.260Z,12.35
2022-12-31T13:08:20.953Z,12.52
2022-12-31T13:10:48.713Z,12.45
2022-12-31T13:13:35.340Z,12.22
2022-12-31T13:16:12.309Z,11.98
2022-12-31T13:18:53.001Z,11.89
2022-12-31T13:21:36.137Z,11.80
2022-12-31T13:24:16.057Z,11.64
2022-12-31T13:26:54.631Z,11.52
2022-12-31T13:29:24.653Z,11.34
2022-12-31T13:31:54.802Z,11.09
2022-12-31T13:34:25.893Z,10.89
2022-12-31T13:36:55.724Z,10.69
2022-12-31T13:39:25.650Z,10.49
2022-12-31T13:42:00.565Z,10.30
2022-12-31T13:44:36.340Z,10.12
2022-12-31T13:47:13.757Z,9.97
2022-12-31T13:49:48.350Z,9.79
2022-12-31T13:52:28.864Z,9.65
2022-12-31T13:55:01.594Z,9.48
2022-12-31T13:57:39.946Z,9.30
2022-12-31T14:00:34.069Z,9.09
2022-12-31T14:03:05.114Z,8.89
2022-12-31T14:05:44.092Z,8.77
2022-12-31T14:08:12.271Z,8.64
2022-12-31T14:10:43.301Z,8.54
2022-12-31T14:13:34.504Z,8.42
2022-12-31T14:16:20.059Z,8.32
2022-12-31T14:18:54.022Z,8.23
2022-12-31T14:21:25.427Z,8.13
2022-12-31T14:23:56.066Z,8.06
2022-12-31T14:26:23.962Z,7.99
2022-12-31T14:29:12.155Z,7.92
2022-12-31T14:31:49.333Z,7.82
2022-12-31T14:34:17.256Z,7.75
2022-12-31T14:37:00.485Z,7.69
2022-12-31T14:39:28.249Z,7.62
2022-12-31T14:41:56.280Z,7.55
2022-12-31T14:44:30.041Z,7.48
2022-12-31T14:46:57.991Z,7.41
2022-12-31T14:49:41.220Z,7.34
2022-12-31T14:52:08.996Z,7.26
2022-12-31T14:54:37.779Z,7.19
2022-12-31T14:57:17.840Z,7.11
2022-12-31T14:59:58.367Z,7.02
2022-12-31T15:02:31.087Z,6.92
2022-12-31T15:05:12.963Z,6.81
2022-12-31T15:07:46.937Z,6.70
2022-12-31T15:10:17.917Z,6.55
2022-12-31T15:12:52.031Z,6.40
2022-12-31T15:15:26.093Z,6.29
2022-12-31T15:18:06.096Z,6.19
2022-12-31T15:20:44.206Z,6.09
2022-12-31T15:23:13.324Z,6.02
2022-12-31T15:25:47.006Z,5.94
2022-12-31T15:28:30.182Z,5.86
2022-12-31T15:31:19.630Z,5.80
2022-12-31T15:33:54.124Z,5.75
2022-12-31T15:36:23.816Z,5.70
2022-12-31T15:39:03.175Z,5.66
2022-12-31T15:41:42.950Z,5.62
2022-12-31T15:44:21.338Z,5.59
2022-12-31T15:46:52.784Z,5.55
2022-12-31T15:49:23.824Z,5.52
2022-12-31T15:51:51.830Z,5.47
2022-12-31T15:54:41.557Z,5.44
2022-12-31T15:57:16.238Z,5.44
2022-12-31T15:59:46.024Z,5.42
2022-12-31T16:02:32.406Z,5.40
2022-12-31T16:05:01.112Z,5.38
2022-12-31T16:07:29.279Z,5.37
2022-12-31T16:09:59.376Z,5.36
2022-12-31T16:12:33.156Z,5.35
2022-12-31T16:15:03.530Z,5.34
2022-12-31T16:17:31.260Z,5.34
2022-12-31T16:20:00.249Z,5.34
2022-12-31T16:22:29.995Z,5.33
2022-12-31T16:25:29.813Z,5.34
2022-12-31T16:27:49.988Z,5.35
2022-12-31T16:30:28.624Z,5.37
2022-12-31T16:32:59.257Z,5.37
2022-12-31T16:35:28.754Z,5.38
2022-12-31T16:38:03.901Z,5.39
2022-12-31T16:40:31.959Z,5.39
2022-12-31T16:42:59.931Z,5.39
2022-12-31T16:45:35.101Z,5.39
2022-12-31T16:48:20.549Z,5.39
2022-12-31T16:50:50.640Z,5.40
2022-12-31T16:53:19.971Z,5.41
2022-12-31T16:55:53.983Z,5.42
2022-12-31T16:58:42.126Z,5.42
2022-12-31T17:01:13.996Z,5.40
2022-12-31T17:03:45.006Z,5.41
2022-12-31T17:06:15.379Z,5.43
2022-12-31T17:08:49.521Z,5.45
2022-12-31T17:11:36.681Z,5.48
2022-12-31T17:14:07.848Z,5.51
2022-12-31T17:16:37.202Z,5.53
2022-12-31T17:19:05.303Z,5.55
2022-12-31T17:21:33.586Z,5.58
2022-12-31T17:24:03.374Z,5.59
2022-12-31T17:26:32.465Z,5.60
2022-12-31T17:29:01.419Z,5.60
2022-12-31T17:31:29.251Z,5.59
2022-12-31T17:34:12.687Z,5.59
2022-12-31T17:37:00.709Z,5.60
2022-12-31T17:39:41.255Z,5.62
2022-12-31T17:42:12.426Z,5.63
2022-12-31T17:44:44.004Z,5.66
2022-12-31T17:47:14.130Z,5.68
2022-12-31T17:49:45.060Z,5.71
2022-12-31T17:52:14.458Z,5.72
2022-12-31T17:54:42.576Z,5.73
2022-12-31T17:57:17.013Z,5.74
2022-12-31T17:59:44.752Z,5.75
2022-12-31T18:02:13.180Z,5.75
2022-12-31T18:04:42.282Z,5.74
2022-12-31T18:07:10.044Z,5.74
2022-12-31T18:09:38.094Z,5.73
2022-12-31T18:12:07.732Z,5.74
2022-12-31T18:14:35.585Z,5.74
2022-12-31T18:17:03.427Z,5.74
2022-12-31T18:20:02.802Z,5.74
2022-12-31T18:22:19.276Z,5.75
2022-12-31T18:24:51.296Z,5.76
2022-12-31T18:27:19.401Z,5.78
2022-12-31T18:29:48.136Z,5.81
2022-12-31T18:32:16.464Z,5.84
2022-12-31T18:34:44.262Z,5.89
2022-12-31T18:37:17.902Z,5.94
2022-12-31T18:39:49.289Z,5.97
2022-12-31T18:42:17.873Z,5.99
2022-12-31T18:44:46.244Z,6.01
2022-12-31T18:47:16.011Z,6.03
2022-12-31T18:49:45.129Z,6.04
2022-12-31T18:52:14.000Z,6.05
2022-12-31T18:54:42.037Z,6.06
2022-12-31T18:57:13.685Z,6.06
2022-12-31T18:59:42.273Z,6.05
2022-12-31T19:02:19.196Z,6.06
2022-12-31T19:04:48.634Z,6.05
2022-12-31T19:07:17.159Z,6.04
2022-12-31T19:09:46.413Z,6.03
2022-12-31T19:12:15.126Z,6.02
2022-12-31T19:14:43.297Z,6.00
2022-12-31T19:19:38.344Z,5.97
2022-12-31T19:22:06.192Z,5.96
2022-12-31T19:24:34.200Z,5.94
2022-12-31T19:27:02.417Z,5.93
2022-12-31T19:29:30.232Z,5.91
2022-12-31T19:32:01.051Z,5.91
2022-12-31T19:34:29.104Z,5.90
2022-12-31T19:36:57.158Z,5.87
2022-12-31T19:39:25.025Z,5.84
2022-12-31T19:41:58.844Z,5.84
2022-12-31T19:44:27.623Z,5.83
2022-12-31T19:46:55.403Z,5.82
2022-12-31T19:49:23.360Z,5.82
2022-12-31T19:51:51.219Z,5.80
2022-12-31T19:54:19.145Z,5.79
2022-12-31T19:56:47.173Z,5.76
2022-12-31T19:59:14.949Z,5.73
2022-12-31T20:01:43.037Z,5.71
2022-12-31T20:04:11.072Z,5.69
2022-12-31T20:06:39.060Z,5.67
2022-12-31T20:09:06.903Z,5.64
2022-12-31T20:11:34.943Z,5.62
2022-12-31T20:14:02.741Z,5.58
2022-12-31T20:16:32.084Z,5.56
2022-12-31T20:19:00.000Z,5.54
2022-12-31T20:21:28.746Z,5.54
2022-12-31T20:23:56.631Z,5.52
2022-12-31T20:26:25.360Z,5.48
2022-12-31T20:28:53.489Z,5.50
2022-12-31T20:31:22.861Z,5.48
2022-12-31T20:33:50.756Z,5.47
2022-12-31T20:36:18.664Z,5.47
2022-12-31T20:38:47.044Z,5.46
2022-12-31T20:41:16.112Z,5.45
2022-12-31T20:43:44.488Z,5.44
2022-12-31T20:46:23.343Z,5.43
2022-12-31T20:48:52.214Z,5.42
2022-12-31T20:51:20.669Z,5.41
2022-12-31T20:54:01.875Z,5.40
2022-12-31T20:56:30.648Z,5.39
2022-12-31T20:58:58.505Z,5.38
2022-12-31T21:01:36.307Z,5.38
2022-12-31T21:04:14.583Z,5.38
2022-12-31T21:06:42.573Z,5.36
2022-12-31T21:09:10.438Z,5.36
2022-12-31T21:11:56.716Z,5.36
2022-12-31T21:14:24.479Z,5.34
2022-12-31T21:16:52.306Z,5.34
2022-12-31T21:19:20.202Z,5.34
2022-12-31T21:21:48.469Z,5.32
2022-12-31T21:24:21.817Z,5.29
2022-12-31T21:26:52.189Z,5.26
2022-12-31T21:29:19.960Z,5.23
2022-12-31T21:31:48.027Z,5.21
2022-12-31T21:34:15.895Z,5.21
2022-12-31T21:36:43.839Z,5.21
2022-12-31T21:39:11.651Z,5.20
2022-12-31T21:41:52.147Z,5.21
2022-12-31T21:44:21.521Z,5.24
2022-12-31T21:47:34.698Z,5.25
2022-12-31T21:49:41.195Z,5.28
2022-12-31T21:52:27.514Z,5.30
2022-12-31T21:55:15.228Z,5.31
2022-12-31T21:58:23.674Z,5.30
2022-12-31T22:00:51.305Z,5.32
2022-12-31T22:03:25.026Z,5.35
2022-12-31T22:05:52.925Z,5.37
2022-12-31T22:08:21.561Z,5.38
2022-12-31T22:10:52.818Z,5.39
2022-12-31T22:13:21.185Z,5.40
2022-12-31T22:15:52.184Z,5.41
2022-12-31T22:18:20.693Z,5.41
2022-12-31T22:20:48.764Z,5.43
2022-12-31T22:23:16.649Z,5.43
2022-12-31T22:25:44.541Z,5.43
2022-12-31T22:28:37.529Z,5.43
2022-12-31T22:31:00.552Z,5.43
2022-12-31T22:33:28.622Z,5.43
2022-12-31T22:35:57.795Z,5.42
2022-12-31T22:38:26.036Z,5.41
2022-12-31T22:41:02.744Z,5.39
2022-12-31T22:43:31.501Z,5.36
2022-12-31T22:45:59.332Z,5.33
2022-12-31T22:48:27.067Z,5.31
2022-12-31T22:50:58.620Z,5.30
2022-12-31T22:53:26.485Z,5.29
2022-12-31T22:55:54.960Z,5.29
2022-12-31T22:58:23.653Z,5.28
2022-12-31T23:00:52.243Z,5.28
2022-12-31T23:03:20.131Z,5.29
2022-12-31T23:05:52.442Z,5.30
2022-12-31T23:08:23.540Z,5.30
2022-12-31T23:11:05.437Z,5.31
2022-12-31T23:13:56.082Z,5.31
2022-12-31T23:16:43.649Z,5.28
2022-12-31T23:19:30.456Z,5.28
2022-12-31T23:22:16.853Z,5.28
2022-12-31T23:24:44.722Z,5.27
2022-12-31T23:27:12.594Z,5.26
2022-12-31T23:29:46.575Z,5.24
2022-12-31T23:32:16.620Z,5.22
2022-12-31T23:34:45.011Z,5.21
2022-12-31T23:37:13.603Z,5.21
2022-12-31T23:39:42.194Z,5.21
2022-12-31T23:42:10.103Z,5.20
2022-12-31T23:44:37.906Z,5.19
2022-12-31T23:47:05.887Z,5.19
2022-12-31T23:49:33.737Z,5.19
2022-12-31T23:52:02.423Z,5.19
2022-12-31T23:54:30.289Z,5.19
2022-12-31T23:56:58.124Z,5.19
2022-12-31T23:59:26.032Z,5.19
